Terminal Aerodrome Forecast
Issued by NWS

Home | Current Version | Previous Version | Text Only | Print | Product List | Glossary On
Versions: 1 2 3 4 5 6 7 8 9 10 11 12 13 14 15 16 17 18 19 20 21 22 23 24 25 26
000
FTUS46 KSEW 191125
TAFPAE
TAF
KPAE 191125Z 1912/2012 11005KT P6SM SCT021 BKN035 OVC090
     FM191300 16010KT 5SM -RA OVC015
     FM191900 17014G24KT P6SM -SHRA BKN025 OVC040
     FM200500 17012KT P6SM -SHRA SCT025 BKN040=

USA.gov is the U.S. government's official web portal to all federal, state and local government web resources and services.